sensor_id;sensor_type;location;lat;lon;timestamp;P1;durP1;ratioP1;P2;durP2;ratioP2
72464;SDS011;60471;52.150;4.508;2022-11-11T00:01:04;19.50;;;7.80;;
72464;SDS011;60471;52.150;4.508;2022-11-11T00:03:39;25.08;;;8.70;;
72464;SDS011;60471;52.150;4.508;2022-11-11T00:06:10;19.55;;;9.52;;
72464;SDS011;60471;52.150;4.508;2022-11-11T00:08:39;23.30;;;9.32;;
72464;SDS011;60471;52.150;4.508;2022-11-11T00:11:08;25.50;;;10.68;;
72464;SDS011;60471;52.150;4.508;2022-11-11T00:13:37;25.42;;;11.65;;
72464;SDS011;60471;52.150;4.508;2022-11-11T00:18:43;31.60;;;13.57;;
72464;SDS011;60471;52.150;4.508;2022-11-11T00:21:30;28.17;;;14.75;;
72464;SDS011;60471;52.150;4.508;2022-11-11T00:24:03;26.90;;;15.18;;
72464;SDS011;60471;52.150;4.508;2022-11-11T00:26:56;29.95;;;15.38;;
72464;SDS011;60471;52.150;4.508;2022-11-11T00:29:24;32.05;;;17.05;;
72464;SDS011;60471;52.150;4.508;2022-11-11T00:31:50;32.45;;;17.88;;
72464;SDS011;60471;52.150;4.508;2022-11-11T00:34:35;30.67;;;16.38;;
72464;SDS011;60471;52.150;4.508;2022-11-11T00:37:01;34.08;;;17.83;;
72464;SDS011;60471;52.150;4.508;2022-11-11T00:39:27;34.58;;;18.65;;
72464;SDS011;60471;52.150;4.508;2022-11-11T00:41:54;37.50;;;19.80;;
72464;SDS011;60471;52.150;4.508;2022-11-11T00:44:20;39.22;;;19.95;;
72464;SDS011;60471;52.150;4.508;2022-11-11T00:46:46;34.40;;;19.27;;
72464;SDS011;60471;52.150;4.508;2022-11-11T00:49:31;45.45;;;19.60;;
72464;SDS011;60471;52.150;4.508;2022-11-11T00:52:16;33.33;;;17.88;;
72464;SDS011;60471;52.150;4.508;2022-11-11T00:54:42;35.38;;;20.38;;
72464;SDS011;60471;52.150;4.508;2022-11-11T00:57:08;39.00;;;20.50;;
72464;SDS011;60471;52.150;4.508;2022-11-11T00:59:34;40.28;;;21.90;;
72464;SDS011;60471;52.150;4.508;2022-11-11T01:02:01;40.58;;;21.42;;
72464;SDS011;60471;52.150;4.508;2022-11-11T01:04:27;34.25;;;18.80;;
72464;SDS011;60471;52.150;4.508;2022-11-11T01:06:53;35.35;;;20.27;;
72464;SDS011;60471;52.150;4.508;2022-11-11T01:09:19;35.65;;;19.45;;
72464;SDS011;60471;52.150;4.508;2022-11-11T01:11:45;42.15;;;22.10;;
72464;SDS011;60471;52.150;4.508;2022-11-11T01:14:12;39.13;;;23.10;;
72464;SDS011;60471;52.150;4.508;2022-11-11T01:16:38;44.15;;;22.58;;
72464;SDS011;60471;52.150;4.508;2022-11-11T01:19:04;41.17;;;22.45;;
72464;SDS011;60471;52.150;4.508;2022-11-11T01:21:30;47.03;;;24.13;;
72464;SDS011;60471;52.150;4.508;2022-11-11T01:23:56;41.22;;;24.38;;
72464;SDS011;60471;52.150;4.508;2022-11-11T01:26:26;42.03;;;24.33;;
72464;SDS011;60471;52.150;4.508;2022-11-11T01:28:54;44.90;;;23.70;;
72464;SDS011;60471;52.150;4.508;2022-11-11T01:31:23;42.10;;;24.17;;
72464;SDS011;60471;52.150;4.508;2022-11-11T01:33:51;40.67;;;23.38;;
72464;SDS011;60471;52.150;4.508;2022-11-11T01:36:21;42.45;;;23.73;;
72464;SDS011;60471;52.150;4.508;2022-11-11T01:38:52;47.15;;;23.85;;
72464;SDS011;60471;52.150;4.508;2022-11-11T01:41:23;39.78;;;22.08;;
72464;SDS011;60471;52.150;4.508;2022-11-11T01:44:17;40.33;;;20.85;;
72464;SDS011;60471;52.150;4.508;2022-11-11T01:47:12;42.60;;;22.77;;
72464;SDS011;60471;52.150;4.508;2022-11-11T01:52:35;38.75;;;22.65;;
72464;SDS011;60471;52.150;4.508;2022-11-11T01:55:09;40.83;;;21.70;;
72464;SDS011;60471;52.150;4.508;2022-11-11T01:57:43;46.88;;;25.00;;
72464;SDS011;60471;52.150;4.508;2022-11-11T02:00:18;41.45;;;23.98;;
72464;SDS011;60471;52.150;4.508;2022-11-11T02:02:47;39.38;;;24.50;;
72464;SDS011;60471;52.150;4.508;2022-11-11T02:05:20;38.22;;;21.35;;
72464;SDS011;60471;52.150;4.508;2022-11-11T02:08:20;40.80;;;24.35;;
72464;SDS011;60471;52.150;4.508;2022-11-11T02:11:02;40.10;;;21.83;;
72464;SDS011;60471;52.150;4.508;2022-11-11T02:13:38;43.45;;;26.30;;
72464;SDS011;60471;52.150;4.508;2022-11-11T02:16:26;38.55;;;21.40;;
72464;SDS011;60471;52.150;4.508;2022-11-11T02:18:53;42.92;;;25.00;;
72464;SDS011;60471;52.150;4.508;2022-11-11T02:21:32;45.78;;;22.38;;
72464;SDS011;60471;52.150;4.508;2022-11-11T02:24:10;40.60;;;23.13;;
72464;SDS011;60471;52.150;4.508;2022-11-11T02:26:43;43.90;;;23.55;;
72464;SDS011;60471;52.150;4.508;2022-11-11T02:29:11;48.10;;;24.77;;
72464;SDS011;60471;52.150;4.508;2022-11-11T02:31:41;40.38;;;22.58;;
72464;SDS011;60471;52.150;4.508;2022-11-11T02:34:08;45.58;;;24.10;;
72464;SDS011;60471;52.150;4.508;2022-11-11T02:36:34;41.60;;;23.20;;
72464;SDS011;60471;52.150;4.508;2022-11-11T02:39:03;39.17;;;22.83;;
72464;SDS011;60471;52.150;4.508;2022-11-11T02:41:29;43.95;;;25.02;;
72464;SDS011;60471;52.150;4.508;2022-11-11T02:44:14;46.20;;;24.42;;
72464;SDS011;60471;52.150;4.508;2022-11-11T02:46:40;47.60;;;21.90;;
72464;SDS011;60471;52.150;4.508;2022-11-11T02:49:06;43.97;;;22.23;;
72464;SDS011;60471;52.150;4.508;2022-11-11T02:51:32;40.55;;;23.38;;
72464;SDS011;60471;52.150;4.508;2022-11-11T02:53:59;38.38;;;19.10;;
72464;SDS011;60471;52.150;4.508;2022-11-11T02:56:27;50.10;;;24.55;;
72464;SDS011;60471;52.150;4.508;2022-11-11T02:59:12;40.00;;;21.52;;
72464;SDS011;60471;52.150;4.508;2022-11-11T03:01:38;44.10;;;22.95;;
72464;SDS011;60471;52.150;4.508;2022-11-11T03:04:05;48.08;;;22.67;;
72464;SDS011;60471;52.150;4.508;2022-11-11T03:06:31;43.72;;;19.85;;
72464;SDS011;60471;52.150;4.508;2022-11-11T03:08:57;50.92;;;26.50;;
72464;SDS011;60471;52.150;4.508;2022-11-11T03:11:23;44.50;;;25.33;;
72464;SDS011;60471;52.150;4.508;2022-11-11T03:13:53;45.10;;;25.05;;
72464;SDS011;60471;52.150;4.508;2022-11-11T03:16:24;46.00;;;24.30;;
72464;SDS011;60471;52.150;4.508;2022-11-11T03:19:09;42.08;;;20.67;;
72464;SDS011;60471;52.150;4.508;2022-11-11T03:21:36;51.35;;;24.63;;
72464;SDS011;60471;52.150;4.508;2022-11-11T03:24:03;42.97;;;24.20;;
72464;SDS011;60471;52.150;4.508;2022-11-11T03:26:30;47.70;;;24.27;;
72464;SDS011;60471;52.150;4.508;2022-11-11T03:28:56;44.47;;;25.10;;
72464;SDS011;60471;52.150;4.508;2022-11-11T03:31:23;40.28;;;21.13;;
72464;SDS011;60471;52.150;4.508;2022-11-11T03:33:49;42.05;;;23.25;;
72464;SDS011;60471;52.150;4.508;2022-11-11T03:36:15;51.08;;;25.02;;
72464;SDS011;60471;52.150;4.508;2022-11-11T03:38:41;44.85;;;25.42;;
72464;SDS011;60471;52.150;4.508;2022-11-11T03:41:07;46.28;;;22.73;;
72464;SDS011;60471;52.150;4.508;2022-11-11T03:43:34;42.17;;;22.15;;
72464;SDS011;60471;52.150;4.508;2022-11-11T03:46:01;48.05;;;24.42;;
72464;SDS011;60471;52.150;4.508;2022-11-11T03:48:31;50.28;;;25.83;;
72464;SDS011;60471;52.150;4.508;2022-11-11T03:50:59;44.85;;;24.05;;
72464;SDS011;60471;52.150;4.508;2022-11-11T03:53:25;39.15;;;21.48;;
72464;SDS011;60471;52.150;4.508;2022-11-11T03:55:51;51.15;;;25.45;;
72464;SDS011;60471;52.150;4.508;2022-11-11T03:58:17;46.60;;;25.67;;
72464;SDS011;60471;52.150;4.508;2022-11-11T04:00:44;48.70;;;25.42;;
72464;SDS011;60471;52.150;4.508;2022-11-11T04:03:14;47.25;;;24.27;;
72464;SDS011;60471;52.150;4.508;2022-11-11T04:06:02;46.92;;;25.83;;
72464;SDS011;60471;52.150;4.508;2022-11-11T04:08:48;43.75;;;23.42;;
72464;SDS011;60471;52.150;4.508;2022-11-11T04:11:37;42.08;;;22.13;;
72464;SDS011;60471;52.150;4.508;2022-11-11T04:14:08;50.42;;;26.15;;
72464;SDS011;60471;52.150;4.508;2022-11-11T04:16:55;44.55;;;24.50;;
72464;SDS011;60471;52.150;4.508;2022-11-11T04:19:22;58.05;;;26.95;;
72464;SDS011;60471;52.150;4.508;2022-11-11T04:22:08;51.30;;;26.48;;
72464;SDS011;60471;52.150;4.508;2022-11-11T04:24:35;47.13;;;24.60;;
72464;SDS011;60471;52.150;4.508;2022-11-11T04:27:20;47.10;;;25.58;;
72464;SDS011;60471;52.150;4.508;2022-11-11T04:29:47;53.85;;;26.40;;
72464;SDS011;60471;52.150;4.508;2022-11-11T04:32:18;46.17;;;25.60;;
72464;SDS011;60471;52.150;4.508;2022-11-11T04:35:08;47.33;;;28.02;;
72464;SDS011;60471;52.150;4.508;2022-11-11T04:37:44;43.30;;;23.48;;
72464;SDS011;60471;52.150;4.508;2022-11-11T04:40:14;52.72;;;28.40;;
72464;SDS011;60471;52.150;4.508;2022-11-11T04:42:59;51.47;;;28.50;;
72464;SDS011;60471;52.150;4.508;2022-11-11T04:45:26;51.88;;;26.83;;
72464;SDS011;60471;52.150;4.508;2022-11-11T04:50:25;50.00;;;26.90;;
72464;SDS011;60471;52.150;4.508;2022-11-11T04:53:01;48.50;;;23.80;;
72464;SDS011;60471;52.150;4.508;2022-11-11T04:55:30;53.08;;;23.35;;
72464;SDS011;60471;52.150;4.508;2022-11-11T04:58:17;48.90;;;27.80;;
72464;SDS011;60471;52.150;4.508;2022-11-11T05:00:46;53.88;;;26.50;;
72464;SDS011;60471;52.150;4.508;2022-11-11T05:03:13;48.45;;;24.85;;
72464;SDS011;60471;52.150;4.508;2022-11-11T05:08:30;57.65;;;27.73;;
72464;SDS011;60471;52.150;4.508;2022-11-11T05:11:16;45.58;;;24.33;;
72464;SDS011;60471;52.150;4.508;2022-11-11T05:13:43;48.22;;;26.40;;
72464;SDS011;60471;52.150;4.508;2022-11-11T05:16:29;51.08;;;25.13;;
72464;SDS011;60471;52.150;4.508;2022-11-11T05:19:17;53.35;;;27.38;;
72464;SDS011;60471;52.150;4.508;2022-11-11T05:24:41;53.25;;;28.90;;
72464;SDS011;60471;52.150;4.508;2022-11-11T05:27:25;67.25;;;34.28;;
72464;SDS011;60471;52.150;4.508;2022-11-11T05:29:52;51.25;;;26.08;;
72464;SDS011;60471;52.150;4.508;2022-11-11T05:32:19;56.97;;;29.60;;
72464;SDS011;60471;52.150;4.508;2022-11-11T05:34:47;54.55;;;27.83;;
72464;SDS011;60471;52.150;4.508;2022-11-11T05:37:14;49.95;;;27.88;;
72464;SDS011;60471;52.150;4.508;2022-11-11T05:39:41;44.60;;;25.23;;
72464;SDS011;60471;52.150;4.508;2022-11-11T05:42:08;54.25;;;27.40;;
72464;SDS011;60471;52.150;4.508;2022-11-11T05:44:35;49.60;;;27.05;;
72464;SDS011;60471;52.150;4.508;2022-11-11T05:47:02;52.25;;;28.40;;
72464;SDS011;60471;52.150;4.508;2022-11-11T05:49:28;50.25;;;26.08;;
72464;SDS011;60471;52.150;4.508;2022-11-11T05:51:55;54.97;;;26.88;;
72464;SDS011;60471;52.150;4.508;2022-11-11T05:54:21;51.10;;;27.70;;
72464;SDS011;60471;52.150;4.508;2022-11-11T05:56:48;47.15;;;25.30;;
72464;SDS011;60471;52.150;4.508;2022-11-11T05:59:15;54.45;;;28.40;;
72464;SDS011;60471;52.150;4.508;2022-11-11T06:01:41;48.72;;;27.48;;
72464;SDS011;60471;52.150;4.508;2022-11-11T06:04:07;48.55;;;24.92;;
72464;SDS011;60471;52.150;4.508;2022-11-11T06:06:34;47.50;;;24.30;;
72464;SDS011;60471;52.150;4.508;2022-11-11T06:09:02;43.78;;;24.52;;
72464;SDS011;60471;52.150;4.508;2022-11-11T06:11:29;45.90;;;27.60;;
72464;SDS011;60471;52.150;4.508;2022-11-11T06:13:56;57.65;;;32.63;;
72464;SDS011;60471;52.150;4.508;2022-11-11T06:16:22;50.75;;;28.95;;
72464;SDS011;60471;52.150;4.508;2022-11-11T06:18:49;45.53;;;23.83;;
72464;SDS011;60471;52.150;4.508;2022-11-11T06:21:16;55.15;;;28.38;;
72464;SDS011;60471;52.150;4.508;2022-11-11T06:23:43;46.10;;;23.75;;
72464;SDS011;60471;52.150;4.508;2022-11-11T06:26:10;51.15;;;28.42;;
72464;SDS011;60471;52.150;4.508;2022-11-11T06:28:45;55.03;;;29.83;;
72464;SDS011;60471;52.150;4.508;2022-11-11T06:31:16;55.95;;;26.77;;
72464;SDS011;60471;52.150;4.508;2022-11-11T06:33:45;55.20;;;29.67;;
72464;SDS011;60471;52.150;4.508;2022-11-11T06:36:12;57.88;;;31.77;;
72464;SDS011;60471;52.150;4.508;2022-11-11T06:38:43;52.70;;;27.00;;
72464;SDS011;60471;52.150;4.508;2022-11-11T06:41:09;51.92;;;28.15;;
72464;SDS011;60471;52.150;4.508;2022-11-11T06:43:37;50.35;;;27.10;;
72464;SDS011;60471;52.150;4.508;2022-11-11T06:46:05;53.05;;;30.00;;
72464;SDS011;60471;52.150;4.508;2022-11-11T06:48:31;53.20;;;30.70;;
72464;SDS011;60471;52.150;4.508;2022-11-11T06:51:02;53.67;;;32.40;;
72464;SDS011;60471;52.150;4.508;2022-11-11T06:53:30;54.75;;;32.20;;
72464;SDS011;60471;52.150;4.508;2022-11-11T06:55:57;53.03;;;29.20;;
72464;SDS011;60471;52.150;4.508;2022-11-11T06:58:23;58.20;;;30.60;;
72464;SDS011;60471;52.150;4.508;2022-11-11T07:00:50;54.50;;;30.33;;
72464;SDS011;60471;52.150;4.508;2022-11-11T07:03:18;57.75;;;32.33;;
72464;SDS011;60471;52.150;4.508;2022-11-11T07:05:46;60.35;;;31.00;;
72464;SDS011;60471;52.150;4.508;2022-11-11T07:08:13;54.92;;;30.55;;
72464;SDS011;60471;52.150;4.508;2022-11-11T07:10:43;51.40;;;28.88;;
72464;SDS011;60471;52.150;4.508;2022-11-11T07:13:13;51.40;;;27.85;;
72464;SDS011;60471;52.150;4.508;2022-11-11T07:15:41;48.75;;;29.45;;
72464;SDS011;60471;52.150;4.508;2022-11-11T07:18:08;52.85;;;28.52;;
72464;SDS011;60471;52.150;4.508;2022-11-11T07:20:36;51.88;;;29.48;;
72464;SDS011;60471;52.150;4.508;2022-11-11T07:23:03;47.67;;;26.30;;
72464;SDS011;60471;52.150;4.508;2022-11-11T07:25:30;57.75;;;27.08;;
72464;SDS011;60471;52.150;4.508;2022-11-11T07:27:57;50.75;;;28.20;;
72464;SDS011;60471;52.150;4.508;2022-11-11T07:30:23;49.70;;;24.83;;
72464;SDS011;60471;52.150;4.508;2022-11-11T07:32:51;46.90;;;25.15;;
72464;SDS011;60471;52.150;4.508;2022-11-11T07:35:17;44.70;;;23.38;;
72464;SDS011;60471;52.150;4.508;2022-11-11T07:37:45;44.17;;;27.00;;
72464;SDS011;60471;52.150;4.508;2022-11-11T07:40:12;45.45;;;26.30;;
72464;SDS011;60471;52.150;4.508;2022-11-11T07:42:42;45.40;;;25.75;;
72464;SDS011;60471;52.150;4.508;2022-11-11T07:45:09;49.35;;;24.13;;
72464;SDS011;60471;52.150;4.508;2022-11-11T07:47:38;43.55;;;23.55;;
72464;SDS011;60471;52.150;4.508;2022-11-11T07:50:04;48.53;;;25.70;;
72464;SDS011;60471;52.150;4.508;2022-11-11T07:52:33;45.40;;;24.35;;
72464;SDS011;60471;52.150;4.508;2022-11-11T07:54:59;49.13;;;27.08;;
72464;SDS011;60471;52.150;4.508;2022-11-11T07:57:25;44.85;;;23.63;;
72464;SDS011;60471;52.150;4.508;2022-11-11T07:59:51;44.10;;;22.42;;
72464;SDS011;60471;52.150;4.508;2022-11-11T08:02:17;43.55;;;24.83;;
72464;SDS011;60471;52.150;4.508;2022-11-11T08:04:44;42.58;;;22.80;;
72464;SDS011;60471;52.150;4.508;2022-11-11T08:07:10;40.78;;;20.98;;
72464;SDS011;60471;52.150;4.508;2022-11-11T08:09:36;46.42;;;25.23;;
72464;SDS011;60471;52.150;4.508;2022-11-11T08:12:03;50.35;;;24.35;;
72464;SDS011;60471;52.150;4.508;2022-11-11T08:14:48;41.20;;;24.50;;
72464;SDS011;60471;52.150;4.508;2022-11-11T08:17:14;49.10;;;26.33;;
72464;SDS011;60471;52.150;4.508;2022-11-11T08:19:40;46.90;;;24.80;;
72464;SDS011;60471;52.150;4.508;2022-11-11T08:22:06;45.63;;;23.70;;
72464;SDS011;60471;52.150;4.508;2022-11-11T08:24:32;43.03;;;25.15;;
72464;SDS011;60471;52.150;4.508;2022-11-11T08:26:59;46.20;;;26.63;;
72464;SDS011;60471;52.150;4.508;2022-11-11T08:29:25;48.95;;;28.35;;
72464;SDS011;60471;52.150;4.508;2022-11-11T08:31:51;55.90;;;31.02;;
72464;SDS011;60471;52.150;4.508;2022-11-11T08:34:18;49.65;;;26.48;;
72464;SDS011;60471;52.150;4.508;2022-11-11T08:36:44;50.10;;;27.95;;
72464;SDS011;60471;52.150;4.508;2022-11-11T08:39:10;55.58;;;30.13;;
72464;SDS011;60471;52.150;4.508;2022-11-11T08:41:36;54.42;;;30.50;;
72464;SDS011;60471;52.150;4.508;2022-11-11T08:44:03;55.47;;;32.28;;
72464;SDS011;60471;52.150;4.508;2022-11-11T08:46:29;55.47;;;30.70;;
72464;SDS011;60471;52.150;4.508;2022-11-11T08:48:56;55.28;;;32.67;;
72464;SDS011;60471;52.150;4.508;2022-11-11T08:51:22;51.28;;;30.45;;
72464;SDS011;60471;52.150;4.508;2022-11-11T08:53:48;49.50;;;27.73;;
72464;SDS011;60471;52.150;4.508;2022-11-11T08:56:14;56.00;;;30.75;;
72464;SDS011;60471;52.150;4.508;2022-11-11T08:58:41;56.42;;;32.67;;
72464;SDS011;60471;52.150;4.508;2022-11-11T09:01:11;51.22;;;29.20;;
72464;SDS011;60471;52.150;4.508;2022-11-11T09:03:40;54.95;;;29.05;;
72464;SDS011;60471;52.150;4.508;2022-11-11T09:06:09;79.25;;;42.80;;
72464;SDS011;60471;52.150;4.508;2022-11-11T09:08:36;57.50;;;33.35;;
72464;SDS011;60471;52.150;4.508;2022-11-11T09:11:02;57.33;;;34.00;;
72464;SDS011;60471;52.150;4.508;2022-11-11T09:13:29;59.63;;;34.80;;
72464;SDS011;60471;52.150;4.508;2022-11-11T09:15:55;54.58;;;29.38;;
72464;SDS011;60471;52.150;4.508;2022-11-11T09:18:22;67.85;;;35.80;;
72464;SDS011;60471;52.150;4.508;2022-11-11T09:20:48;63.90;;;34.63;;
72464;SDS011;60471;52.150;4.508;2022-11-11T09:23:15;62.88;;;35.92;;
72464;SDS011;60471;52.150;4.508;2022-11-11T09:25:41;60.20;;;36.63;;
72464;SDS011;60471;52.150;4.508;2022-11-11T09:28:07;63.38;;;34.50;;
72464;SDS011;60471;52.150;4.508;2022-11-11T09:30:33;59.47;;;34.08;;
72464;SDS011;60471;52.150;4.508;2022-11-11T09:33:00;54.20;;;31.27;;
72464;SDS011;60471;52.150;4.508;2022-11-11T09:35:28;58.15;;;31.88;;
72464;SDS011;60471;52.150;4.508;2022-11-11T09:37:56;50.70;;;29.70;;
72464;SDS011;60471;52.150;4.508;2022-11-11T09:40:27;64.13;;;32.80;;
72464;SDS011;60471;52.150;4.508;2022-11-11T09:46:25;76.53;;;47.30;;
72464;SDS011;60471;52.150;4.508;2022-11-11T09:52:17;56.95;;;32.55;;
72464;SDS011;60471;52.150;4.508;2022-11-11T09:54:49;57.92;;;31.42;;
72464;SDS011;60471;52.150;4.508;2022-11-11T09:57:36;56.35;;;35.20;;
72464;SDS011;60471;52.150;4.508;2022-11-11T10:00:17;54.80;;;34.10;;
72464;SDS011;60471;52.150;4.508;2022-11-11T10:02:53;52.30;;;33.90;;
72464;SDS011;60471;52.150;4.508;2022-11-11T10:05:36;55.33;;;32.00;;
72464;SDS011;60471;52.150;4.508;2022-11-11T10:08:29;49.58;;;31.33;;
72464;SDS011;60471;52.150;4.508;2022-11-11T10:11:11;47.85;;;27.58;;
72464;SDS011;60471;52.150;4.508;2022-11-11T10:13:51;48.92;;;29.45;;
72464;SDS011;60471;52.150;4.508;2022-11-11T10:19:29;51.38;;;29.73;;
72464;SDS011;60471;52.150;4.508;2022-11-11T10:22:18;46.38;;;29.65;;
72464;SDS011;60471;52.150;4.508;2022-11-11T10:27:39;51.75;;;31.52;;
72464;SDS011;60471;52.150;4.508;2022-11-11T10:30:18;46.00;;;28.95;;
72464;SDS011;60471;52.150;4.508;2022-11-11T10:32:58;47.83;;;29.40;;
72464;SDS011;60471;52.150;4.508;2022-11-11T10:35:30;44.60;;;26.90;;
72464;SDS011;60471;52.150;4.508;2022-11-11T10:40:45;47.42;;;27.40;;
72464;SDS011;60471;52.150;4.508;2022-11-11T10:51:56;40.78;;;25.13;;
72464;SDS011;60471;52.150;4.508;2022-11-11T10:54:44;45.13;;;26.98;;
72464;SDS011;60471;52.150;4.508;2022-11-11T10:57:28;42.00;;;27.98;;
72464;SDS011;60471;52.150;4.508;2022-11-11T11:00:06;44.47;;;24.60;;
72464;SDS011;60471;52.150;4.508;2022-11-11T11:02:50;45.50;;;26.63;;
72464;SDS011;60471;52.150;4.508;2022-11-11T11:05:33;43.20;;;24.75;;
72464;SDS011;60471;52.150;4.508;2022-11-11T11:08:08;41.33;;;24.35;;
72464;SDS011;60471;52.150;4.508;2022-11-11T11:10:59;40.10;;;24.55;;
72464;SDS011;60471;52.150;4.508;2022-11-11T11:13:44;35.25;;;22.40;;
72464;SDS011;60471;52.150;4.508;2022-11-11T11:16:38;36.75;;;21.17;;
72464;SDS011;60471;52.150;4.508;2022-11-11T11:21:50;32.92;;;20.42;;
72464;SDS011;60471;52.150;4.508;2022-11-11T11:24:28;33.47;;;18.65;;
72464;SDS011;60471;52.150;4.508;2022-11-11T11:26:58;32.17;;;19.02;;
72464;SDS011;60471;52.150;4.508;2022-11-11T11:29:40;36.65;;;20.30;;
72464;SDS011;60471;52.150;4.508;2022-11-11T11:32:16;32.45;;;19.13;;
72464;SDS011;60471;52.150;4.508;2022-11-11T11:34:50;32.58;;;19.95;;
72464;SDS011;60471;52.150;4.508;2022-11-11T11:37:22;33.25;;;21.40;;
72464;SDS011;60471;52.150;4.508;2022-11-11T11:40:00;29.30;;;19.35;;
72464;SDS011;60471;52.150;4.508;2022-11-11T11:45:18;31.83;;;21.05;;
72464;SDS011;60471;52.150;4.508;2022-11-11T11:48:01;31.92;;;20.35;;
72464;SDS011;60471;52.150;4.508;2022-11-11T11:55:59;34.55;;;21.17;;
72464;SDS011;60471;52.150;4.508;2022-11-11T11:58:34;30.13;;;19.60;;
72464;SDS011;60471;52.150;4.508;2022-11-11T12:01:21;28.35;;;19.45;;
72464;SDS011;60471;52.150;4.508;2022-11-11T12:10:06;32.28;;;19.65;;
72464;SDS011;60471;52.150;4.508;2022-11-11T12:21:26;32.72;;;18.48;;
72464;SDS011;60471;52.150;4.508;2022-11-11T12:24:10;31.77;;;19.35;;
72464;SDS011;60471;52.150;4.508;2022-11-11T12:29:57;29.77;;;16.05;;
72464;SDS011;60471;52.150;4.508;2022-11-11T12:35:48;28.80;;;16.35;;
72464;SDS011;60471;52.150;4.508;2022-11-11T12:38:37;25.77;;;15.60;;
72464;SDS011;60471;52.150;4.508;2022-11-11T12:44:07;41.75;;;25.73;;
72464;SDS011;60471;52.150;4.508;2022-11-11T12:58:43;23.48;;;14.02;;
72464;SDS011;60471;52.150;4.508;2022-11-11T13:14:09;22.00;;;13.02;;
72464;SDS011;60471;52.150;4.508;2022-11-11T13:17:11;25.92;;;13.93;;
72464;SDS011;60471;52.150;4.508;2022-11-11T13:24:51;21.20;;;12.82;;
72464;SDS011;60471;52.150;4.508;2022-11-11T13:27:23;20.52;;;13.27;;
72464;SDS011;60471;52.150;4.508;2022-11-11T13:30:16;20.92;;;12.07;;
72464;SDS011;60471;52.150;4.508;2022-11-11T13:36:03;22.38;;;12.27;;
72464;SDS011;60471;52.150;4.508;2022-11-11T13:38:44;21.38;;;11.05;;
72464;SDS011;60471;52.150;4.508;2022-11-11T13:41:19;19.67;;;11.80;;
72464;SDS011;60471;52.150;4.508;2022-11-11T13:43:51;20.05;;;10.75;;
72464;SDS011;60471;52.150;4.508;2022-11-11T13:49:19;20.58;;;11.20;;
72464;SDS011;60471;52.150;4.508;2022-11-11T13:51:59;21.67;;;11.18;;
72464;SDS011;60471;52.150;4.508;2022-11-11T13:54:34;22.85;;;11.77;;
72464;SDS011;60471;52.150;4.508;2022-11-11T13:57:08;18.50;;;10.75;;
72464;SDS011;60471;52.150;4.508;2022-11-11T14:00:05;19.83;;;10.57;;
72464;SDS011;60471;52.150;4.508;2022-11-11T14:05:38;19.95;;;10.57;;
72464;SDS011;60471;52.150;4.508;2022-11-11T14:08:05;16.25;;;10.32;;
72464;SDS011;60471;52.150;4.508;2022-11-11T14:15:47;20.02;;;9.55;;
72464;SDS011;60471;52.150;4.508;2022-11-11T14:20:46;18.38;;;8.98;;
72464;SDS011;60471;52.150;4.508;2022-11-11T14:25:50;17.50;;;9.60;;
72464;SDS011;60471;52.150;4.508;2022-11-11T14:39:05;17.75;;;9.15;;
72464;SDS011;60471;52.150;4.508;2022-11-11T14:41:47;16.20;;;8.77;;
72464;SDS011;60471;52.150;4.508;2022-11-11T14:54:56;16.75;;;8.63;;
72464;SDS011;60471;52.150;4.508;2022-11-11T15:00:18;21.65;;;8.77;;
72464;SDS011;60471;52.150;4.508;2022-11-11T15:02:59;19.00;;;8.75;;
72464;SDS011;60471;52.150;4.508;2022-11-11T15:19:40;19.40;;;8.32;;
72464;SDS011;60471;52.150;4.508;2022-11-11T15:25:29;17.13;;;7.95;;
72464;SDS011;60471;52.150;4.508;2022-11-11T15:36:51;18.02;;;8.90;;
72464;SDS011;60471;52.150;4.508;2022-11-11T15:39:30;23.25;;;9.07;;
72464;SDS011;60471;52.150;4.508;2022-11-11T15:42:16;22.20;;;9.10;;
72464;SDS011;60471;52.150;4.508;2022-11-11T15:44:54;21.83;;;8.43;;
72464;SDS011;60471;52.150;4.508;2022-11-11T15:47:24;20.65;;;8.70;;
72464;SDS011;60471;52.150;4.508;2022-11-11T15:49:52;17.42;;;8.45;;
72464;SDS011;60471;52.150;4.508;2022-11-11T15:54:48;115.68;;;66.13;;
72464;SDS011;60471;52.150;4.508;2022-11-11T15:57:26;20.08;;;9.52;;
72464;SDS011;60471;52.150;4.508;2022-11-11T15:59:57;24.75;;;8.77;;
72464;SDS011;60471;52.150;4.508;2022-11-11T16:02:27;15.15;;;8.23;;
72464;SDS011;60471;52.150;4.508;2022-11-11T16:04:58;22.58;;;10.23;;
72464;SDS011;60471;52.150;4.508;2022-11-11T16:07:35;48.65;;;28.02;;
72464;SDS011;60471;52.150;4.508;2022-11-11T16:10:08;18.50;;;8.55;;
72464;SDS011;60471;52.150;4.508;2022-11-11T16:12:43;16.80;;;8.07;;
72464;SDS011;60471;52.150;4.508;2022-11-11T16:15:23;15.15;;;7.78;;
72464;SDS011;60471;52.150;4.508;2022-11-11T16:18:48;18.98;;;8.75;;
72464;SDS011;60471;52.150;4.508;2022-11-11T16:21:23;19.85;;;8.95;;
72464;SDS011;60471;52.150;4.508;2022-11-11T16:24:06;16.08;;;8.30;;
72464;SDS011;60471;52.150;4.508;2022-11-11T16:26:48;18.52;;;9.07;;
72464;SDS011;60471;52.150;4.508;2022-11-11T16:29:16;18.42;;;8.80;;
72464;SDS011;60471;52.150;4.508;2022-11-11T16:31:44;22.15;;;9.25;;
72464;SDS011;60471;52.150;4.508;2022-11-11T16:34:23;20.67;;;8.23;;
72464;SDS011;60471;52.150;4.508;2022-11-11T16:37:08;20.75;;;9.63;;
72464;SDS011;60471;52.150;4.508;2022-11-11T16:39:41;21.23;;;8.75;;
72464;SDS011;60471;52.150;4.508;2022-11-11T17:00:40;18.88;;;8.57;;
72464;SDS011;60471;52.150;4.508;2022-11-11T17:03:12;21.38;;;8.50;;
72464;SDS011;60471;52.150;4.508;2022-11-11T17:14:03;19.17;;;9.18;;
72464;SDS011;60471;52.150;4.508;2022-11-11T17:19:39;18.50;;;8.57;;
72464;SDS011;60471;52.150;4.508;2022-11-11T17:22:07;20.23;;;9.45;;
72464;SDS011;60471;52.150;4.508;2022-11-11T17:24:36;21.13;;;9.05;;
72464;SDS011;60471;52.150;4.508;2022-11-11T17:27:03;17.63;;;9.02;;
72464;SDS011;60471;52.150;4.508;2022-11-11T17:29:30;18.38;;;9.77;;
72464;SDS011;60471;52.150;4.508;2022-11-11T17:31:56;19.48;;;9.95;;
72464;SDS011;60471;52.150;4.508;2022-11-11T17:34:23;24.02;;;10.38;;
72464;SDS011;60471;52.150;4.508;2022-11-11T17:36:49;21.33;;;9.90;;
72464;SDS011;60471;52.150;4.508;2022-11-11T17:39:15;20.90;;;9.98;;
72464;SDS011;60471;52.150;4.508;2022-11-11T17:41:41;24.25;;;10.23;;
72464;SDS011;60471;52.150;4.508;2022-11-11T17:44:08;19.58;;;10.80;;
72464;SDS011;60471;52.150;4.508;2022-11-11T17:46:34;20.38;;;10.68;;
72464;SDS011;60471;52.150;4.508;2022-11-11T17:49:00;35.22;;;15.68;;
72464;SDS011;60471;52.150;4.508;2022-11-11T17:51:26;23.10;;;11.73;;
72464;SDS011;60471;52.150;4.508;2022-11-11T17:53:53;26.25;;;12.15;;
72464;SDS011;60471;52.150;4.508;2022-11-11T17:56:20;28.08;;;13.45;;
72464;SDS011;60471;52.150;4.508;2022-11-11T17:58:46;23.77;;;11.95;;
72464;SDS011;60471;52.150;4.508;2022-11-11T18:01:13;27.55;;;12.30;;
72464;SDS011;60471;52.150;4.508;2022-11-11T18:03:40;28.33;;;13.15;;
72464;SDS011;60471;52.150;4.508;2022-11-11T18:06:07;32.33;;;13.75;;
72464;SDS011;60471;52.150;4.508;2022-11-11T18:08:35;25.50;;;12.40;;
72464;SDS011;60471;52.150;4.508;2022-11-11T18:11:02;29.20;;;14.18;;
72464;SDS011;60471;52.150;4.508;2022-11-11T18:13:33;26.45;;;12.40;;
72464;SDS011;60471;52.150;4.508;2022-11-11T18:16:00;24.55;;;12.88;;